Time;durP1;ratioP1;P1;durP2;ratioP2;P2;SDS_P1;SDS_P2;PMS_P1;PMS_P2;Temp;Humidity;BMP_temperature;BMP_pressure;BME280_temperature;BME280_humidity;BME280_pressure;Samples;Min_cycle;Max_cycle;Signal;HPM_P1;HPM_P2
2023/11/09 00:00:12;;;;;;;3.90;2.00;;;9.20;99.90;;;;;;4917054;29;20500;-63
2023/11/09 00:02:40;;;;;;;2.23;2.03;;;9.20;99.90;;;;;;4916685;29;20559;-62
2023/11/09 00:05:10;;;;;;;2.27;1.70;;;9.10;99.90;;;;;;4913017;28;20953;-62
2023/11/09 00:07:39;;;;;;;1.90;1.80;;;9.10;99.90;;;;;;4918261;29;20476;-63
2023/11/09 00:10:10;;;;;;;4.30;1.80;;;9.20;99.90;;;;;;4911310;29;20555;-61
2023/11/09 00:12:41;;;;;;;1.90;1.70;;;9.20;99.90;;;;;;4916354;29;20477;-62
2023/11/09 00:15:10;;;;;;;2.47;1.90;;;9.20;99.90;;;;;;4912473;28;20492;-62
2023/11/09 00:17:38;;;;;;;1.93;1.53;;;9.20;99.90;;;;;;4915084;29;20484;-63
2023/11/09 00:20:07;;;;;;;2.90;1.93;;;9.20;99.90;;;;;;4917307;29;20500;-63
2023/11/09 00:22:36;;;;;;;1.90;1.80;;;9.20;99.90;;;;;;4915838;29;20895;-63
2023/11/09 00:25:04;;;;;;;1.80;1.70;;;9.20;99.90;;;;;;4917083;28;20897;-62
2023/11/09 00:27:32;;;;;;;2.20;2.00;;;9.20;99.90;;;;;;4916457;29;20985;-61
2023/11/09 00:30:02;;;;;;;4.40;2.20;;;9.20;99.90;;;;;;4914610;29;20465;-61
2023/11/09 00:32:29;;;;;;;2.33;2.20;;;9.20;99.90;;;;;;4914368;29;20473;-62
2023/11/09 00:34:57;;;;;;;3.60;2.37;;;9.30;99.90;;;;;;4912580;28;20508;-62
2023/11/09 00:37:28;;;;;;;2.33;2.13;;;9.30;99.90;;;;;;4916717;29;20582;-63
2023/11/09 00:39:56;;;;;;;2.27;2.17;;;9.30;99.90;;;;;;4917233;29;20659;-62
2023/11/09 00:42:24;;;;;;;2.40;2.17;;;9.30;99.90;;;;;;4910963;29;20489;-62
2023/11/09 00:44:54;;;;;;;2.57;2.33;;;9.30;99.90;;;;;;4914511;28;20640;-62
2023/11/09 00:47:23;;;;;;;2.20;1.97;;;9.30;99.90;;;;;;4916491;29;20576;-62
2023/11/09 00:49:53;;;;;;;3.67;2.60;;;9.30;99.90;;;;;;4911299;29;20497;-62
2023/11/09 00:52:21;;;;;;;3.20;2.37;;;9.30;99.90;;;;;;4913462;29;20495;-62
2023/11/09 00:54:51;;;;;;;2.70;2.50;;;9.30;99.90;;;;;;4916464;28;20503;-62
2023/11/09 00:57:20;;;;;;;3.90;2.10;;;9.30;99.90;;;;;;4919159;29;20555;-62
2023/11/09 00:59:49;;;;;;;2.50;2.30;;;9.30;99.90;;;;;;4917062;29;21054;-63
2023/11/09 01:02:17;;;;;;;2.47;2.13;;;9.40;99.90;;;;;;4917033;29;20487;-63
2023/11/09 01:04:46;;;;;;;2.40;1.97;;;9.30;99.90;;;;;;4913884;28;20718;-62
2023/11/09 01:07:15;;;;;;;2.50;2.07;;;9.30;99.90;;;;;;4916956;29;20476;-63
2023/11/09 01:09:45;;;;;;;2.53;2.10;;;9.30;99.90;;;;;;4918074;29;21016;-62
2023/11/09 01:12:13;;;;;;;2.10;1.83;;;9.30;99.90;;;;;;4914427;29;20484;-62
2023/11/09 01:14:43;;;;;;;3.87;2.17;;;9.30;99.90;;;;;;4919850;28;21052;-62
2023/11/09 01:17:12;;;;;;;2.20;2.00;;;9.40;99.90;;;;;;4918306;29;20484;-62
2023/11/09 01:19:40;;;;;;;2.50;2.30;;;9.40;99.90;;;;;;4913544;29;20580;-62
2023/11/09 01:22:09;;;;;;;1.83;1.73;;;9.40;99.90;;;;;;4915195;29;20483;-62
2023/11/09 01:24:37;;;;;;;2.53;2.30;;;9.40;99.90;;;;;;4914390;28;21015;-61
2023/11/09 01:27:06;;;;;;;4.33;2.13;;;9.40;99.90;;;;;;4912956;29;20994;-62
2023/11/09 01:29:34;;;;;;;2.87;1.97;;;9.40;99.90;;;;;;4915571;29;20580;-62
2023/11/09 01:32:02;;;;;;;2.23;2.10;;;9.40;99.90;;;;;;4918282;29;20918;-62
2023/11/09 01:34:30;;;;;;;2.10;2.00;;;9.40;99.90;;;;;;4915725;28;20670;-62
2023/11/09 01:36:58;;;;;;;2.10;2.00;;;9.40;99.90;;;;;;4916541;29;20511;-62
2023/11/09 01:39:27;;;;;;;2.60;2.30;;;9.40;99.90;;;;;;4912597;29;20532;-62
2023/11/09 01:41:55;;;;;;;2.40;2.20;;;9.40;99.90;;;;;;4914270;29;20472;-61
2023/11/09 01:44:23;;;;;;;2.43;2.20;;;9.40;99.90;;;;;;4908227;28;21087;-62
2023/11/09 01:46:53;;;;;;;2.00;1.60;;;9.50;99.90;;;;;;4918840;29;20572;-62
2023/11/09 01:49:22;;;;;;;1.80;1.70;;;9.50;99.90;;;;;;4916555;29;21344;-62
2023/11/09 01:51:54;;;;;;;2.03;1.83;;;9.50;99.90;;;;;;4920036;29;20499;-62
2023/11/09 01:54:23;;;;;;;2.40;1.63;;;9.50;99.90;;;;;;4917588;28;20530;-62
2023/11/09 01:56:53;;;;;;;1.90;1.80;;;9.50;99.90;;;;;;4921596;29;20578;-62
2023/11/09 01:59:22;;;;;;;2.17;1.93;;;9.50;99.90;;;;;;4918900;29;20932;-62
2023/11/09 02:01:52;;;;;;;2.40;2.20;;;9.50;99.90;;;;;;4922471;29;20734;-62
2023/11/09 02:04:21;;;;;;;2.40;1.67;;;9.50;99.90;;;;;;4918987;28;20504;-62
2023/11/09 02:06:52;;;;;;;4.30;1.80;;;9.50;99.90;;;;;;4918713;29;20472;-62
2023/11/09 02:09:20;;;;;;;2.10;1.90;;;9.50;99.90;;;;;;4918199;29;20952;-61
2023/11/09 02:11:49;;;;;;;2.47;2.20;;;9.50;99.90;;;;;;4919927;29;20568;-63
2023/11/09 02:14:20;;;;;;;1.70;1.60;;;9.50;99.90;;;;;;4920520;28;20920;-63
2023/11/09 02:16:49;;;;;;;2.10;1.80;;;9.50;99.90;;;;;;4921745;29;20990;-62
2023/11/09 02:19:19;;;;;;;2.30;1.70;;;9.50;99.90;;;;;;4917480;29;20499;-63
2023/11/09 02:21:51;;;;;;;2.33;2.07;;;9.50;99.90;;;;;;4915660;29;20498;-62
2023/11/09 02:24:21;;;;;;;2.03;1.93;;;9.50;99.90;;;;;;4913439;28;21108;-62
2023/11/09 02:26:49;;;;;;;2.00;1.90;;;9.50;99.90;;;;;;4919171;29;20484;-62
2023/11/09 02:29:21;;;;;;;5.20;2.20;;;9.50;99.90;;;;;;4913367;29;20472;-63
2023/11/09 02:31:49;;;;;;;2.43;2.17;;;9.50;99.90;;;;;;4919584;29;20552;-62
2023/11/09 02:34:23;;;;;;;2.10;1.90;;;9.50;99.90;;;;;;4917650;28;20515;-62
2023/11/09 02:36:52;;;;;;;2.00;1.90;;;9.50;99.90;;;;;;4918503;29;20476;-63
2023/11/09 02:39:22;;;;;;;2.30;2.13;;;9.50;99.90;;;;;;4920757;29;20915;-63
2023/11/09 02:41:50;;;;;;;2.37;2.17;;;9.50;99.90;;;;;;4919621;29;20575;-63
2023/11/09 02:44:17;;;;;;;1.90;1.80;;;9.50;99.90;;;;;;4915232;28;20518;-62
2023/11/09 02:46:45;;;;;;;1.90;1.80;;;9.50;99.90;;;;;;4919946;29;20982;-62
2023/11/09 02:49:13;;;;;;;2.20;2.00;;;9.60;99.90;;;;;;4917441;29;20483;-62
2023/11/09 02:51:41;;;;;;;2.00;1.90;;;9.60;99.90;;;;;;4917752;29;20962;-62
2023/11/09 02:54:09;;;;;;;1.90;1.80;;;9.50;99.90;;;;;;4916824;28;20566;-62
2023/11/09 02:56:39;;;;;;;1.90;1.80;;;9.50;99.90;;;;;;4914474;29;20483;-62
2023/11/09 02:59:07;;;;;;;1.90;1.77;;;9.60;99.90;;;;;;4918848;29;20591;-62
2023/11/09 03:01:35;;;;;;;2.10;2.00;;;9.60;99.90;;;;;;4918158;29;20587;-62
2023/11/09 03:04:04;;;;;;;1.90;1.80;;;9.60;99.90;;;;;;4914472;28;20492;-63
2023/11/09 03:06:32;;;;;;;1.80;1.70;;;9.60;99.90;;;;;;4915448;29;20487;-62
2023/11/09 03:09:00;;;;;;;2.10;1.80;;;9.60;99.90;;;;;;4920534;29;20559;-62
2023/11/09 03:11:28;;;;;;;1.80;1.70;;;9.60;99.90;;;;;;4919807;29;20505;-62
2023/11/09 03:13:57;;;;;;;1.90;1.80;;;9.60;99.90;;;;;;4919595;28;20691;-61
2023/11/09 03:16:25;;;;;;;1.70;1.60;;;9.60;99.90;;;;;;4918221;29;20951;-62
2023/11/09 03:18:54;;;;;;;2.03;1.83;;;9.60;99.90;;;;;;4919875;29;20540;-63
2023/11/09 03:21:22;;;;;;;1.57;1.47;;;9.60;99.90;;;;;;4920106;29;20512;-62
2023/11/09 03:23:50;;;;;;;2.03;1.93;;;9.60;99.90;;;;;;4916163;28;20493;-62
2023/11/09 03:26:18;;;;;;;1.87;1.77;;;9.60;99.90;;;;;;4919127;29;20475;-62
2023/11/09 03:28:46;;;;;;;1.97;1.87;;;9.60;99.90;;;;;;4915629;29;20472;-62
2023/11/09 03:31:16;;;;;;;1.77;1.67;;;9.60;99.90;;;;;;4919488;29;20598;-62
2023/11/09 03:33:44;;;;;;;1.77;1.40;;;9.60;99.90;;;;;;4917747;28;20818;-62
2023/11/09 03:36:17;;;;;;;1.67;1.57;;;9.60;99.90;;;;;;4920954;29;20977;-62
2023/11/09 03:38:46;;;;;;;1.80;1.70;;;9.60;99.90;;;;;;4920734;29;20554;-62
2023/11/09 03:41:14;;;;;;;1.80;1.70;;;9.60;99.90;;;;;;4917988;29;20517;-62
2023/11/09 03:43:42;;;;;;;1.57;1.47;;;9.60;99.90;;;;;;4917216;28;20866;-62
2023/11/09 03:46:13;;;;;;;1.77;1.67;;;9.70;99.90;;;;;;4913843;29;20556;-61
2023/11/09 03:48:44;;;;;;;3.50;1.47;;;9.60;99.90;;;;;;4917035;29;20483;-62
2023/11/09 03:51:12;;;;;;;1.60;1.50;;;9.60;99.90;;;;;;4914385;29;20958;-62
2023/11/09 03:53:40;;;;;;;1.70;1.60;;;9.60;99.90;;;;;;4919320;28;20577;-62
2023/11/09 03:56:08;;;;;;;1.30;1.20;;;9.60;99.90;;;;;;4918854;29;20564;-62
2023/11/09 03:58:36;;;;;;;1.80;1.70;;;9.60;99.90;;;;;;4919772;29;20908;-62
2023/11/09 04:01:05;;;;;;;1.60;1.50;;;9.60;99.90;;;;;;4915712;29;20989;-62
2023/11/09 04:03:33;;;;;;;2.13;1.60;;;9.60;99.90;;;;;;4916502;28;20488;-61
2023/11/09 04:06:02;;;;;;;1.43;1.33;;;9.60;99.90;;;;;;4918207;29;20998;-63
2023/11/09 04:08:30;;;;;;;1.80;1.30;;;9.60;99.90;;;;;;4916662;29;20858;-62
2023/11/09 04:10:58;;;;;;;2.17;1.80;;;9.60;99.90;;;;;;4919843;29;20638;-62
2023/11/09 04:13:26;;;;;;;1.70;1.60;;;9.60;99.90;;;;;;4917227;28;21057;-63
2023/11/09 04:15:54;;;;;;;1.70;1.60;;;9.60;99.90;;;;;;4918867;29;20503;-62
2023/11/09 04:18:25;;;;;;;1.43;1.33;;;9.70;99.90;;;;;;4917192;29;20591;-62
2023/11/09 04:20:53;;;;;;;1.47;1.37;;;9.70;99.90;;;;;;4915351;29;20579;-62
2023/11/09 04:23:22;;;;;;;1.57;1.47;;;9.70;99.90;;;;;;4916327;28;20492;-61
2023/11/09 04:25:51;;;;;;;1.70;1.60;;;9.70;99.90;;;;;;4919668;29;20606;-63
2023/11/09 04:28:19;;;;;;;1.57;1.47;;;9.70;99.90;;;;;;4905976;29;20502;-62
2023/11/09 04:30:51;;;;;;;2.23;2.03;;;9.70;99.90;;;;;;4917494;29;20491;-62
2023/11/09 04:33:19;;;;;;;1.60;1.50;;;9.70;99.90;;;;;;4917929;28;20514;-63
2023/11/09 04:35:48;;;;;;;1.80;1.70;;;9.70;99.90;;;;;;4917149;29;20494;-61
2023/11/09 04:38:16;;;;;;;2.43;1.90;;;9.70;99.90;;;;;;4913505;29;20515;-63
2023/11/09 04:40:47;;;;;;;2.10;1.90;;;9.70;99.90;;;;;;4918241;29;20482;-63
2023/11/09 04:43:17;;;;;;;1.87;1.77;;;9.70;99.90;;;;;;4915840;28;20584;-61
2023/11/09 04:45:45;;;;;;;2.10;2.00;;;9.70;99.90;;;;;;4916144;29;20475;-63
2023/11/09 04:48:20;;;;;;;2.00;1.90;;;9.70;99.90;;;;;;4916907;29;20655;-62
2023/11/09 04:50:55;;;;;;;3.30;2.17;;;9.70;99.90;;;;;;4917634;29;20567;-62
2023/11/09 04:53:31;;;;;;;2.40;2.20;;;9.70;99.90;;;;;;4917758;28;20617;-63
2023/11/09 04:56:07;;;;;;;2.73;2.50;;;9.70;99.90;;;;;;4919712;29;20551;-61
2023/11/09 04:58:44;;;;;;;2.37;2.17;;;9.70;99.90;;;;;;4914827;29;20900;-63
2023/11/09 05:06:49;;;;;;;2.43;2.23;;;9.70;99.90;;;;;;4914903;29;20479;-61
2023/11/09 05:09:18;;;;;;;3.43;2.47;;;9.70;99.90;;;;;;4917294;29;20587;-63
2023/11/09 05:11:48;;;;;;;2.80;2.60;;;9.70;99.90;;;;;;4918088;29;20974;-63
2023/11/09 05:14:16;;;;;;;2.70;2.50;;;9.70;99.90;;;;;;4917133;28;20555;-61
2023/11/09 05:16:44;;;;;;;2.67;2.47;;;9.70;99.90;;;;;;4914586;29;20558;-62
2023/11/09 05:19:13;;;;;;;2.43;2.23;;;9.70;99.90;;;;;;4918035;29;20603;-63
2023/11/09 05:21:41;;;;;;;2.90;2.30;;;9.70;99.90;;;;;;4920049;29;20529;-63
2023/11/09 05:24:09;;;;;;;2.70;2.50;;;9.70;99.90;;;;;;4918919;28;20480;-61
2023/11/09 05:26:38;;;;;;;2.30;2.07;;;9.70;99.90;;;;;;4920411;29;20554;-63
2023/11/09 05:29:09;;;;;;;2.60;2.40;;;9.70;99.90;;;;;;4922876;29;20932;-63
2023/11/09 05:31:38;;;;;;;2.83;2.63;;;9.70;99.90;;;;;;4912828;29;20472;-63
2023/11/09 05:34:07;;;;;;;3.17;2.70;;;9.70;99.90;;;;;;4912996;28;20843;-63
2023/11/09 05:36:35;;;;;;;2.67;2.47;;;9.70;99.90;;;;;;4916320;29;20550;-63
2023/11/09 05:39:04;;;;;;;2.60;2.40;;;9.70;99.90;;;;;;4918827;29;20608;-63
2023/11/09 05:41:33;;;;;;;2.20;2.00;;;9.70;99.90;;;;;;4919519;29;20524;-63
2023/11/09 05:44:01;;;;;;;2.73;2.53;;;9.70;99.90;;;;;;4919270;28;20579;-63
2023/11/09 05:46:31;;;;;;;3.37;3.07;;;9.70;99.90;;;;;;4913256;29;20477;-62
2023/11/09 05:48:59;;;;;;;2.50;2.40;;;9.70;99.90;;;;;;4915460;29;20959;-63
2023/11/09 05:51:28;;;;;;;3.43;3.13;;;9.80;99.90;;;;;;4915475;29;20479;-66
2023/11/09 05:53:57;;;;;;;3.30;3.10;;;9.80;99.90;;;;;;4915548;28;20619;-63
2023/11/09 05:56:26;;;;;;;3.27;2.97;;;9.70;99.90;;;;;;4917014;29;20934;-63
2023/11/09 05:58:54;;;;;;;3.30;3.00;;;9.70;99.90;;;;;;4913548;29;20489;-62
2023/11/09 06:01:22;;;;;;;3.03;2.83;;;9.70;99.90;;;;;;4918841;29;21016;-63
2023/11/09 06:03:52;;;;;;;3.63;3.20;;;9.70;99.90;;;;;;4919828;28;20787;-63
2023/11/09 06:06:20;;;;;;;3.70;3.40;;;9.70;99.90;;;;;;4911319;29;20564;-62
2023/11/09 06:08:49;;;;;;;3.60;3.30;;;9.70;99.90;;;;;;4910523;29;20527;-63
2023/11/09 06:11:17;;;;;;;3.33;3.10;;;9.70;99.90;;;;;;4913891;29;20566;-62
2023/11/09 06:13:45;;;;;;;3.50;2.57;;;9.70;99.90;;;;;;4908636;28;20658;-63
2023/11/09 06:16:13;;;;;;;3.00;2.80;;;9.80;99.90;;;;;;4919080;29;20559;-62
2023/11/09 06:18:42;;;;;;;2.97;2.70;;;9.70;99.90;;;;;;4905119;29;20483;-61
2023/11/09 06:21:12;;;;;;;3.53;3.23;;;9.80;99.90;;;;;;4907296;29;20471;-62
2023/11/09 06:23:40;;;;;;;2.73;2.50;;;9.80;99.90;;;;;;4911650;28;20515;-61
2023/11/09 06:26:08;;;;;;;4.03;2.53;;;9.80;99.90;;;;;;4905083;29;20478;-62
2023/11/09 06:28:36;;;;;;;3.00;2.70;;;9.80;99.90;;;;;;4915517;29;20507;-62
2023/11/09 06:31:06;;;;;;;3.03;2.83;;;9.80;99.90;;;;;;4916178;29;20491;-63
2023/11/09 06:33:35;;;;;;;2.90;2.60;;;9.80;99.90;;;;;;4919389;28;20623;-63
2023/11/09 06:36:05;;;;;;;3.30;2.20;;;9.70;99.90;;;;;;4916087;29;20508;-63
2023/11/09 06:38:35;;;;;;;2.87;2.67;;;9.70;99.90;;;;;;4920241;29;21139;-63
2023/11/09 06:41:04;;;;;;;2.53;2.33;;;9.70;99.90;;;;;;4918385;29;20805;-63
2023/11/09 06:43:32;;;;;;;3.30;3.00;;;9.70;99.90;;;;;;4919362;28;20592;-62
2023/11/09 06:46:00;;;;;;;3.27;3.00;;;9.70;99.90;;;;;;4916097;29;21008;-62
2023/11/09 06:48:28;;;;;;;3.13;2.67;;;9.70;99.90;;;;;;4918869;29;20525;-63
2023/11/09 06:50:56;;;;;;;3.33;2.83;;;9.70;99.90;;;;;;4922168;29;20979;-62
2023/11/09 06:53:25;;;;;;;3.87;3.20;;;9.70;99.90;;;;;;4918488;28;20626;-62
2023/11/09 06:55:54;;;;;;;4.10;3.20;;;9.70;99.90;;;;;;4918114;29;20843;-64
2023/11/09 06:58:22;;;;;;;3.40;3.00;;;9.70;99.90;;;;;;4911510;29;20478;-64
2023/11/09 07:00:50;;;;;;;3.13;2.87;;;9.70;99.90;;;;;;4919078;29;20502;-64
2023/11/09 07:03:19;;;;;;;3.20;3.00;;;9.70;99.90;;;;;;4910286;28;20582;-63
2023/11/09 07:05:52;;;;;;;4.07;3.10;;;9.70;99.90;;;;;;4912006;29;20485;-63
2023/11/09 07:08:28;;;;;;;3.10;2.90;;;9.70;99.90;;;;;;4921275;29;20552;-63
2023/11/09 07:10:59;;;;;;;3.30;3.10;;;9.70;99.90;;;;;;4914757;29;20512;-64
2023/11/09 07:13:27;;;;;;;3.27;2.97;;;9.70;99.90;;;;;;4912469;28;20591;-64
2023/11/09 07:15:55;;;;;;;3.30;3.00;;;9.70;99.90;;;;;;4913587;29;20471;-64
2023/11/09 07:18:23;;;;;;;3.07;2.87;;;9.60;99.90;;;;;;4918240;29;21013;-61
2023/11/09 07:20:51;;;;;;;2.97;2.77;;;9.70;99.90;;;;;;4914327;29;20483;-62
2023/11/09 07:23:34;;;;;;;2.57;2.37;;;9.70;99.90;;;;;;4914657;28;20588;-63
2023/11/09 07:26:05;;;;;;;3.93;2.93;;;9.70;99.90;;;;;;4913888;29;20624;-64
2023/11/09 07:28:33;;;;;;;2.97;2.70;;;9.70;99.90;;;;;;4920974;29;20934;-62
2023/11/09 07:31:01;;;;;;;2.50;1.80;;;9.70;99.90;;;;;;4918262;29;20472;-60
2023/11/09 07:33:29;;;;;;;2.53;2.33;;;9.70;99.90;;;;;;4918121;28;21208;-62
2023/11/09 07:35:59;;;;;;;2.30;2.20;;;9.70;99.90;;;;;;4920496;29;20472;-62
2023/11/09 07:38:27;;;;;;;2.80;2.60;;;9.70;99.90;;;;;;4917934;29;20481;-62
2023/11/09 07:40:55;;;;;;;2.87;2.60;;;9.70;99.90;;;;;;4918274;29;20558;-62
2023/11/09 07:43:25;;;;;;;3.10;2.33;;;9.70;99.90;;;;;;4914240;28;20539;-62
2023/11/09 07:45:54;;;;;;;4.67;2.60;;;9.70;99.90;;;;;;4917864;29;21013;-61
2023/11/09 07:48:23;;;;;;;2.97;2.43;;;9.70;99.90;;;;;;4913588;29;20487;-62
2023/11/09 07:50:52;;;;;;;3.67;2.50;;;9.70;99.90;;;;;;4915017;29;20480;-61
2023/11/09 07:53:20;;;;;;;3.33;2.20;;;9.70;99.90;;;;;;4913219;28;20622;-62
2023/11/09 07:55:48;;;;;;;2.00;1.90;;;9.70;99.90;;;;;;4916579;29;20484;-62
2023/11/09 07:58:17;;;;;;;2.00;1.90;;;9.70;99.90;;;;;;4916224;29;20548;-62
2023/11/09 08:00:46;;;;;;;2.20;2.00;;;9.70;99.90;;;;;;4921013;29;20467;-62
2023/11/09 08:03:17;;;;;;;2.73;2.43;;;9.70;99.90;;;;;;4911402;28;20831;-62
2023/11/09 08:05:47;;;;;;;2.57;2.37;;;9.70;99.90;;;;;;4913462;29;20491;-62
2023/11/09 08:08:16;;;;;;;3.70;2.00;;;9.70;99.90;;;;;;4920132;29;20955;-62
2023/11/09 08:10:45;;;;;;;4.10;2.47;;;9.70;99.90;;;;;;4913686;29;20576;-61
2023/11/09 08:13:13;;;;;;;2.60;2.40;;;9.70;99.90;;;;;;4916268;28;20586;-62
2023/11/09 08:15:41;;;;;;;2.60;2.20;;;9.70;99.90;;;;;;4919507;29;20681;-62
2023/11/09 08:18:10;;;;;;;2.70;2.50;;;9.70;99.90;;;;;;4909825;29;20587;-62
2023/11/09 08:20:38;;;;;;;2.40;2.20;;;9.70;99.90;;;;;;4918459;29;20559;-62
2023/11/09 08:23:08;;;;;;;2.67;2.43;;;9.80;99.90;;;;;;4911888;28;20578;-62
2023/11/09 08:25:36;;;;;;;2.50;2.13;;;9.70;99.90;;;;;;4914787;29;21015;-62
2023/11/09 08:28:05;;;;;;;2.73;2.40;;;9.70;99.90;;;;;;4916665;29;20464;-61
2023/11/09 08:30:33;;;;;;;2.00;1.90;;;9.70;99.90;;;;;;4919046;29;21013;-62
2023/11/09 08:33:02;;;;;;;2.10;2.00;;;9.70;99.90;;;;;;4917649;28;20484;-62
2023/11/09 08:35:31;;;;;;;1.83;1.63;;;9.70;99.90;;;;;;4920869;29;20547;-62
2023/11/09 08:38:01;;;;;;;1.60;1.50;;;9.70;99.90;;;;;;4914271;29;20475;-61
2023/11/09 08:40:29;;;;;;;3.43;2.10;;;9.70;99.90;;;;;;4906732;29;20638;-61
2023/11/09 08:42:58;;;;;;;2.10;2.00;;;9.70;99.90;;;;;;4917056;28;20484;-61
2023/11/09 08:45:28;;;;;;;2.00;1.90;;;9.80;99.90;;;;;;4920961;29;21055;-61
2023/11/09 08:47:57;;;;;;;2.20;2.00;;;9.80;99.90;;;;;;4918683;29;20873;-61
2023/11/09 08:50:26;;;;;;;2.10;2.00;;;9.80;99.90;;;;;;4914177;29;20507;-61
2023/11/09 08:52:55;;;;;;;2.17;1.73;;;9.80;99.90;;;;;;4916655;28;20473;-60
2023/11/09 08:55:23;;;;;;;1.87;1.77;;;9.80;99.90;;;;;;4919393;29;20790;-61
2023/11/09 08:57:52;;;;;;;1.70;1.60;;;9.70;99.90;;;;;;4920024;29;20546;-61
2023/11/09 09:00:23;;;;;;;2.20;2.00;;;9.80;99.90;;;;;;4917068;29;20571;-61
2023/11/09 09:02:54;;;;;;;1.93;1.83;;;9.80;99.90;;;;;;4920742;28;20480;-61
2023/11/09 09:05:24;;;;;;;2.00;1.90;;;9.80;99.90;;;;;;4920743;29;21017;-61
2023/11/09 09:07:56;;;;;;;1.70;1.60;;;9.80;99.90;;;;;;4917906;29;20530;-61
2023/11/09 09:10:29;;;;;;;2.57;2.20;;;9.80;99.90;;;;;;4919476;29;20479;-61
2023/11/09 09:12:59;;;;;;;1.73;1.63;;;9.80;99.90;;;;;;4918426;28;20915;-60
2023/11/09 09:15:28;;;;;;;1.87;1.77;;;9.80;99.90;;;;;;4916507;29;20609;-61
2023/11/09 09:17:58;;;;;;;2.23;2.13;;;9.80;99.90;;;;;;4919259;29;20575;-60
2023/11/09 09:20:27;;;;;;;2.20;2.00;;;9.80;99.90;;;;;;4918679;29;20551;-61
2023/11/09 09:22:59;;;;;;;1.97;1.80;;;9.80;99.90;;;;;;4920023;28;21244;-61
2023/11/09 09:25:29;;;;;;;1.83;1.73;;;9.80;99.90;;;;;;4914550;29;20587;-62
2023/11/09 09:27:58;;;;;;;1.90;1.80;;;9.80;99.90;;;;;;4918811;29;20468;-62
2023/11/09 09:30:27;;;;;;;1.80;1.70;;;9.80;99.90;;;;;;4917847;29;20678;-61
2023/11/09 09:32:56;;;;;;;1.73;1.63;;;9.90;99.90;;;;;;4912930;28;20484;-62
2023/11/09 09:35:25;;;;;;;2.00;1.90;;;9.80;99.90;;;;;;4920525;29;20810;-61
2023/11/09 09:38:02;;;;;;;1.73;1.63;;;9.90;99.90;;;;;;4917819;29;20483;-60
2023/11/09 09:40:32;;;;;;;2.23;1.93;;;9.90;99.90;;;;;;4919599;29;20535;-62
2023/11/09 09:43:16;;;;;;;2.43;1.80;;;9.90;99.90;;;;;;4916481;28;20521;-60
2023/11/09 09:45:46;;;;;;;3.00;1.80;;;9.90;99.90;;;;;;4919302;29;21118;-61
2023/11/09 09:48:16;;;;;;;2.57;2.10;;;9.90;99.90;;;;;;4920292;29;20547;-64
2023/11/09 09:50:44;;;;;;;2.40;2.13;;;9.90;99.90;;;;;;4910628;29;20555;-61
2023/11/09 09:53:20;;;;;;;2.20;2.10;;;9.90;99.90;;;;;;4918343;28;21016;-61
2023/11/09 09:55:48;;;;;;;2.80;2.60;;;10.00;99.90;;;;;;4918680;29;20478;-61
2023/11/09 09:58:16;;;;;;;2.97;2.77;;;10.00;99.90;;;;;;4919778;29;20499;-62
2023/11/09 10:00:45;;;;;;;2.80;2.60;;;10.00;99.90;;;;;;4917089;29;20573;-61
2023/11/09 10:03:13;;;;;;;3.03;2.73;;;10.00;99.90;;;;;;4919828;28;21010;-61
2023/11/09 10:05:41;;;;;;;2.63;2.47;;;10.00;99.90;;;;;;4913760;29;20484;-61
2023/11/09 10:08:12;;;;;;;2.93;2.73;;;10.10;99.90;;;;;;4915919;29;20973;-62
2023/11/09 10:10:47;;;;;;;3.00;2.80;;;10.10;99.90;;;;;;4922547;29;20475;-62
2023/11/09 10:13:18;;;;;;;2.70;2.50;;;10.10;99.90;;;;;;4922504;28;21061;-61
2023/11/09 10:15:54;;;;;;;3.13;2.90;;;10.10;99.90;;;;;;4919256;29;20598;-62
2023/11/09 10:18:26;;;;;;;2.93;2.70;;;10.10;99.90;;;;;;4921975;29;20511;-62
2023/11/09 10:20:56;;;;;;;3.50;3.13;;;10.10;99.90;;;;;;4921880;29;20476;-62
2023/11/09 10:23:25;;;;;;;3.47;3.17;;;10.10;99.90;;;;;;4915599;28;20603;-60
2023/11/09 10:25:56;;;;;;;3.13;2.90;;;10.10;99.90;;;;;;4915913;29;20615;-61
2023/11/09 10:28:28;;;;;;;3.10;2.87;;;10.20;99.90;;;;;;4922204;29;20487;-61
2023/11/09 10:30:57;;;;;;;3.77;3.47;;;10.20;99.90;;;;;;4924004;29;20468;-61
2023/11/09 10:33:26;;;;;;;3.33;3.13;;;10.20;99.90;;;;;;4921333;28;20882;-61
2023/11/09 10:35:56;;;;;;;3.50;3.20;;;10.30;99.90;;;;;;4921322;29;20555;-61
2023/11/09 10:38:25;;;;;;;3.60;3.30;;;10.30;99.90;;;;;;4920552;29;20540;-60
2023/11/09 10:40:57;;;;;;;3.00;2.80;;;10.30;99.90;;;;;;4914210;29;20555;-61
2023/11/09 10:43:50;;;;;;;3.40;3.20;;;10.30;99.90;;;;;;4917383;28;20826;-60
2023/11/09 10:46:20;;;;;;;3.00;2.80;;;10.30;99.90;;;;;;4916015;29;20492;-62
2023/11/09 10:48:50;;;;;;;3.77;3.47;;;10.40;99.90;;;;;;4919434;29;20551;-61
2023/11/09 10:51:21;;;;;;;3.20;3.00;;;10.30;99.90;;;;;;4921588;29;20492;-61
2023/11/09 10:53:49;;;;;;;3.50;3.20;;;10.40;99.90;;;;;;4917058;28;20571;-61
2023/11/09 10:56:19;;;;;;;3.70;3.47;;;10.30;99.90;;;;;;4920505;29;20480;-62
2023/11/09 10:58:48;;;;;;;4.00;3.70;;;10.40;99.90;;;;;;4920346;29;20508;-62
2023/11/09 11:01:22;;;;;;;3.80;3.50;;;10.40;99.90;;;;;;4921634;29;20578;-61
2023/11/09 11:03:54;;;;;;;4.27;3.97;;;10.40;99.90;;;;;;4910093;28;20869;-61
2023/11/09 11:06:31;;;;;;;7.37;4.50;;;10.40;99.90;;;;;;4922205;29;20500;-61
2023/11/09 11:09:07;;;;;;;4.70;4.30;;;10.40;99.90;;;;;;4922569;29;20468;-62
2023/11/09 11:11:40;;;;;;;4.53;4.23;;;10.40;99.90;;;;;;4919916;29;20566;-61
2023/11/09 11:14:14;;;;;;;5.80;5.20;;;10.40;99.90;;;;;;4917672;28;20487;-61
2023/11/09 11:17:17;;;;;;;5.13;4.77;;;10.40;99.90;;;;;;4920081;29;20472;-61
2023/11/09 11:20:08;;;;;;;5.10;4.70;;;10.50;99.90;;;;;;4907172;29;20558;-61
2023/11/09 11:22:54;;;;;;;5.37;5.07;;;10.50;99.90;;;;;;4917411;29;20479;-62
2023/11/09 11:25:34;;;;;;;5.67;5.17;;;10.50;99.90;;;;;;4918154;29;20547;-61
2023/11/09 11:28:06;;;;;;;8.00;7.30;;;10.60;99.90;;;;;;4914104;29;20480;-61
2023/11/09 11:30:36;;;;;;;6.00;5.57;;;10.70;99.90;;;;;;4918721;29;20481;-61
2023/11/09 11:33:08;;;;;;;5.50;5.03;;;10.80;99.90;;;;;;4915189;28;20483;-61
2023/11/09 11:35:42;;;;;;;5.40;5.00;;;10.90;99.90;;;;;;4919343;29;20496;-61
2023/11/09 11:38:22;;;;;;;5.90;5.43;;;10.90;99.90;;;;;;4919795;29;20475;-61
2023/11/09 11:41:00;;;;;;;5.70;5.30;;;11.00;99.90;;;;;;4922356;29;20484;-61
2023/11/09 11:43:37;;;;;;;5.00;4.70;;;11.00;99.90;;;;;;4919141;28;20591;-61
2023/11/09 11:46:11;;;;;;;5.33;4.93;;;11.00;99.90;;;;;;4914610;29;20499;-61
2023/11/09 11:48:43;;;;;;;4.97;4.67;;;11.00;99.90;;;;;;4917984;29;20554;-62
2023/11/09 11:51:11;;;;;;;4.77;4.47;;;11.00;99.90;;;;;;4920195;29;20487;-61
2023/11/09 11:53:43;;;;;;;5.27;4.77;;;11.00;99.90;;;;;;4912291;28;20511;-61
2023/11/09 11:56:13;;;;;;;4.70;4.40;;;10.90;99.90;;;;;;4917558;29;20474;-61
2023/11/09 11:58:48;;;;;;;4.90;4.60;;;10.90;99.90;;;;;;4916798;29;20468;-62
2023/11/09 12:01:21;;;;;;;4.90;4.50;;;10.90;99.90;;;;;;4919354;29;20574;-60
2023/11/09 12:04:02;;;;;;;5.17;4.77;;;10.90;99.90;;;;;;4919519;28;20487;-61
2023/11/09 12:06:34;;;;;;;4.90;4.50;;;10.90;99.90;;;;;;4920816;29;20974;-61
2023/11/09 12:09:07;;;;;;;4.27;3.97;;;10.90;99.90;;;;;;4921187;29;20966;-61
2023/11/09 12:11:43;;;;;;;4.80;4.40;;;10.90;99.90;;;;;;4917751;29;20811;-61
2023/11/09 12:14:15;;;;;;;5.07;4.67;;;10.90;99.90;;;;;;4920480;28;20967;-62
2023/11/09 12:16:43;;;;;;;4.90;4.57;;;10.80;99.90;;;;;;4919540;29;20558;-62
2023/11/09 12:19:12;;;;;;;4.90;4.40;;;10.90;99.90;;;;;;4920390;29;20483;-61
2023/11/09 12:21:43;;;;;;;4.63;4.33;;;10.90;99.90;;;;;;4917937;29;21002;-61
2023/11/09 12:24:12;;;;;;;5.93;5.43;;;10.90;99.90;;;;;;4920135;28;21002;-61
2023/11/09 12:26:42;;;;;;;5.80;5.20;;;10.90;99.90;;;;;;4918877;29;20500;-62
2023/11/09 12:29:11;;;;;;;4.97;4.57;;;10.90;99.90;;;;;;4910293;29;20464;-62
2023/11/09 12:31:40;;;;;;;4.77;4.47;;;10.80;99.90;;;;;;4916104;29;20486;-62
2023/11/09 12:34:10;;;;;;;5.00;4.60;;;10.90;99.90;;;;;;4916088;28;20556;-62
2023/11/09 12:36:41;;;;;;;4.87;4.40;;;10.90;99.90;;;;;;4919082;29;20921;-61
2023/11/09 12:39:28;;;;;;;5.50;5.00;;;11.00;99.90;;;;;;4919884;29;20987;-61
2023/11/09 12:41:57;;;;;;;5.00;4.60;;;11.00;99.90;;;;;;4915310;29;20475;-61
2023/11/09 12:44:26;;;;;;;5.07;4.77;;;11.10;99.90;;;;;;4917361;28;21041;-60
2023/11/09 12:46:57;;;;;;;4.77;4.37;;;11.20;99.90;;;;;;4911077;29;21433;-61
2023/11/09 12:49:27;;;;;;;4.70;4.40;;;11.30;99.90;;;;;;4919248;29;20626;-60
2023/11/09 12:51:57;;;;;;;4.80;4.40;;;11.40;99.90;;;;;;4919706;29;20481;-61
2023/11/09 12:54:25;;;;;;;3.73;3.53;;;11.50;99.90;;;;;;4916132;28;20857;-61
2023/11/09 12:56:56;;;;;;;4.23;3.93;;;11.90;99.90;;;;;;4919921;29;20503;-62
2023/11/09 12:59:28;;;;;;;3.90;3.60;;;12.10;99.90;;;;;;4914635;29;20476;-62
2023/11/09 13:02:03;;;;;;;5.93;3.33;;;12.10;99.90;;;;;;4910541;29;20997;-61
2023/11/09 13:04:41;;;;;;;3.70;3.40;;;12.10;99.90;;;;;;4913675;28;20515;-61
2023/11/09 13:07:11;;;;;;;3.10;2.90;;;12.20;99.90;;;;;;4919248;29;20532;-61
2023/11/09 13:09:41;;;;;;;3.20;3.00;;;12.20;99.90;;;;;;4917477;29;20472;-61
2023/11/09 13:12:32;;;;;;;3.20;3.00;;;12.20;99.90;;;;;;4912603;29;20492;-61
2023/11/09 13:15:13;;;;;;;3.57;3.27;;;12.20;99.90;;;;;;4916741;28;20480;-61